Time;durP1;ratioP1;P1;durP2;ratioP2;P2;SDS_P1;SDS_P2;PMS_P1;PMS_P2;Temp;Humidity;BMP_temperature;BMP_pressure;BME280_temperature;BME280_humidity;BME280_pressure;Samples;Min_cycle;Max_cycle;Signal;HPM_P1;HPM_P2
2023/11/18 00:00:19;;;;;;;20.48;12.63;;;7.30;99.90;;;;;;5005603;28;20034;-53
2023/11/18 00:02:46;;;;;;;17.13;11.80;;;7.20;99.90;;;;;;5005388;28;20033;-50
2023/11/18 00:05:12;;;;;;;19.02;12.57;;;7.20;99.90;;;;;;5005256;28;20028;-55
2023/11/18 00:07:38;;;;;;;18.50;13.07;;;7.20;99.90;;;;;;5005540;28;20113;-50
2023/11/18 00:10:04;;;;;;;18.88;13.13;;;7.10;99.90;;;;;;5004355;28;20179;-54
2023/11/18 00:12:30;;;;;;;18.63;12.52;;;7.10;99.90;;;;;;5003961;28;20030;-49
2023/11/18 00:14:55;;;;;;;22.60;13.02;;;7.00;99.90;;;;;;5005344;28;20032;-53
2023/11/18 00:17:22;;;;;;;19.95;13.45;;;7.00;99.90;;;;;;5004143;28;20022;-50
2023/11/18 00:19:47;;;;;;;16.70;11.80;;;7.00;99.90;;;;;;4998257;28;20042;-54
2023/11/18 00:22:13;;;;;;;18.38;12.82;;;7.00;99.90;;;;;;4985488;28;20415;-53
2023/11/18 00:24:38;;;;;;;17.17;11.40;;;7.00;99.90;;;;;;4985667;28;20114;-62
2023/11/18 00:27:07;;;;;;;19.00;13.48;;;7.00;99.90;;;;;;4986408;28;20058;-56
2023/11/18 00:29:34;;;;;;;20.15;13.18;;;7.00;99.90;;;;;;4987512;28;20108;-56
2023/11/18 00:32:03;;;;;;;21.58;13.25;;;7.00;99.90;;;;;;4993427;28;20053;-53
2023/11/18 00:34:29;;;;;;;20.50;12.52;;;7.00;99.90;;;;;;4997974;28;20026;-52
2023/11/18 00:36:57;;;;;;;15.75;12.32;;;7.00;99.90;;;;;;5012589;28;20060;-54
2023/11/18 00:39:23;;;;;;;20.77;13.48;;;7.10;99.90;;;;;;5014671;28;20038;-57
2023/11/18 00:41:48;;;;;;;24.42;13.00;;;7.10;99.90;;;;;;5014878;28;20433;-52
2023/11/18 00:44:14;;;;;;;18.23;12.70;;;7.10;99.90;;;;;;5013532;28;20097;-55
2023/11/18 00:46:40;;;;;;;18.40;12.43;;;7.10;99.90;;;;;;5020321;23;20536;-53
2023/11/18 00:49:05;;;;;;;24.80;14.30;;;7.10;99.90;;;;;;5008938;28;20018;-49
2023/11/18 00:51:31;;;;;;;20.02;12.60;;;7.00;99.90;;;;;;5012224;28;20446;-43
2023/11/18 00:54:00;;;;;;;23.25;12.15;;;7.00;99.90;;;;;;5009848;28;20065;-45
2023/11/18 00:56:26;;;;;;;23.52;12.95;;;7.10;99.90;;;;;;5009737;28;20074;-43
2023/11/18 00:58:53;;;;;;;17.58;12.10;;;7.00;99.90;;;;;;5011007;28;20251;-44
2023/11/18 01:01:18;;;;;;;17.10;12.20;;;6.90;99.90;;;;;;5010760;28;20018;-49
2023/11/18 01:03:47;;;;;;;23.15;12.95;;;6.90;99.90;;;;;;5011749;28;20415;-45
2023/11/18 01:06:15;;;;;;;20.23;13.13;;;6.90;99.90;;;;;;5010491;28;20112;-45
2023/11/18 01:08:44;;;;;;;21.45;12.80;;;6.80;99.90;;;;;;5011845;28;20061;-50
2023/11/18 01:11:09;;;;;;;20.67;12.48;;;6.80;99.90;;;;;;5011679;28;20021;-45
2023/11/18 01:13:35;;;;;;;20.92;13.35;;;6.80;99.90;;;;;;5010543;28;20121;-48
2023/11/18 01:16:01;;;;;;;19.52;13.02;;;6.70;99.90;;;;;;5011824;28;20029;-48
2023/11/18 01:18:27;;;;;;;21.73;12.38;;;6.60;99.90;;;;;;5011747;28;20018;-47
2023/11/18 01:20:53;;;;;;;20.65;12.38;;;6.50;99.90;;;;;;5011677;28;20026;-49
2023/11/18 01:23:18;;;;;;;18.60;14.18;;;6.50;99.90;;;;;;5011630;28;20021;-44
2023/11/18 01:25:44;;;;;;;59.55;33.35;;;6.40;99.90;;;;;;5011658;28;20033;-43
2023/11/18 01:28:10;;;;;;;38.90;23.35;;;6.40;99.90;;;;;;5010226;28;20026;-46
2023/11/18 01:30:36;;;;;;;20.60;13.93;;;6.30;99.90;;;;;;5011796;28;20022;-49
2023/11/18 01:33:02;;;;;;;22.08;13.65;;;6.30;99.90;;;;;;5010367;28;20022;-48
2023/11/18 01:35:27;;;;;;;20.10;14.07;;;6.30;99.90;;;;;;5011569;28;20014;-50
2023/11/18 01:37:54;;;;;;;16.23;11.70;;;6.20;99.90;;;;;;5011399;28;20417;-48
2023/11/18 01:40:20;;;;;;;21.38;12.00;;;6.20;99.90;;;;;;5011293;28;20398;-48
2023/11/18 01:42:46;;;;;;;22.25;12.65;;;6.10;99.90;;;;;;5010031;28;20025;-44
2023/11/18 01:45:16;;;;;;;14.55;10.68;;;6.10;99.90;;;;;;5011348;28;20453;-47
2023/11/18 01:47:42;;;;;;;17.25;11.77;;;6.00;99.90;;;;;;5011069;28;20053;-46
2023/11/18 01:50:12;;;;;;;18.67;12.05;;;6.00;99.90;;;;;;5011420;28;20022;-48
2023/11/18 01:52:37;;;;;;;17.38;13.05;;;6.00;99.90;;;;;;5011022;28;20026;-44
2023/11/18 01:55:06;;;;;;;19.17;13.13;;;6.00;99.90;;;;;;5011244;28;20030;-43
2023/11/18 01:57:33;;;;;;;22.17;14.38;;;6.00;99.90;;;;;;5011051;28;20486;-47
2023/11/18 01:59:58;;;;;;;28.08;14.75;;;6.00;99.90;;;;;;5010553;28;20022;-50
2023/11/18 02:02:25;;;;;;;21.38;14.38;;;6.10;99.90;;;;;;5010834;28;20512;-45
2023/11/18 02:04:51;;;;;;;20.25;12.63;;;6.10;99.90;;;;;;5011231;28;20034;-47
2023/11/18 02:07:17;;;;;;;20.42;13.10;;;6.20;99.90;;;;;;5010819;28;20482;-50
2023/11/18 02:09:43;;;;;;;20.63;13.38;;;6.10;99.90;;;;;;5010952;28;20026;-49
2023/11/18 02:12:27;;;;;;;20.65;13.90;;;6.10;99.90;;;;;;5010771;28;20025;-47
2023/11/18 02:14:55;;;;;;;18.85;11.30;;;6.00;99.90;;;;;;5011029;28;20393;-47
2023/11/18 02:17:24;;;;;;;17.17;10.93;;;5.90;99.90;;;;;;5010729;28;20032;-45
2023/11/18 02:19:51;;;;;;;19.35;10.90;;;5.90;99.90;;;;;;5026397;28;20080;-47
2023/11/18 02:22:17;;;;;;;13.63;9.27;;;5.80;99.90;;;;;;5010764;28;20440;-44
2023/11/18 02:24:43;;;;;;;19.85;11.75;;;5.90;99.90;;;;;;5009613;28;20079;-46
2023/11/18 02:27:11;;;;;;;17.40;11.57;;;5.80;99.90;;;;;;5010493;28;20071;-46
2023/11/18 02:29:41;;;;;;;19.40;11.68;;;5.80;99.90;;;;;;5010861;28;20061;-45
2023/11/18 02:32:23;;;;;;;18.52;11.60;;;5.80;99.90;;;;;;5010436;28;20046;-45
2023/11/18 02:35:02;;;;;;;16.50;10.95;;;5.70;99.90;;;;;;5010727;28;20022;-44
2023/11/18 02:37:32;;;;;;;15.10;10.13;;;5.60;99.90;;;;;;5010420;28;20040;-49
2023/11/18 02:40:11;;;;;;;19.05;10.90;;;5.60;99.90;;;;;;5010610;28;20050;-44
2023/11/18 02:42:38;;;;;;;14.15;10.27;;;5.50;99.90;;;;;;5010238;28;20030;-46
2023/11/18 02:45:06;;;;;;;14.95;9.93;;;5.50;99.90;;;;;;5010351;28;20061;-45
2023/11/18 02:47:32;;;;;;;16.92;10.30;;;5.30;99.90;;;;;;5010103;28;20030;-50
2023/11/18 02:50:10;;;;;;;19.80;12.68;;;5.50;99.90;;;;;;5010427;28;20047;-52
2023/11/18 02:52:37;;;;;;;27.15;13.85;;;5.50;99.90;;;;;;5010204;28;20501;-47
2023/11/18 02:55:06;;;;;;;24.80;14.35;;;5.40;99.90;;;;;;5010234;28;20034;-46
2023/11/18 02:57:32;;;;;;;24.23;13.95;;;5.40;99.90;;;;;;5010025;28;20026;-47
2023/11/18 03:00:00;;;;;;;24.27;13.43;;;5.50;99.90;;;;;;5009019;28;20029;-47
2023/11/18 03:02:30;;;;;;;24.20;13.27;;;5.40;99.90;;;;;;5010212;28;20101;-45
2023/11/18 03:04:59;;;;;;;21.52;13.27;;;5.30;99.90;;;;;;5025296;28;20030;-44
2023/11/18 03:07:26;;;;;;;17.45;11.65;;;5.20;99.90;;;;;;5008729;28;20026;-45
2023/11/18 03:09:57;;;;;;;19.48;12.43;;;5.20;99.90;;;;;;5010048;28;20022;-43
2023/11/18 03:12:27;;;;;;;21.48;12.85;;;5.20;99.90;;;;;;5009838;28;20026;-44
2023/11/18 03:14:53;;;;;;;19.17;11.98;;;5.10;99.90;;;;;;5010076;28;20018;-44
2023/11/18 03:17:20;;;;;;;20.60;12.45;;;5.00;99.90;;;;;;5009862;28;20374;-45
2023/11/18 03:19:45;;;;;;;18.75;12.07;;;4.90;99.90;;;;;;5009969;28;20465;-48
2023/11/18 03:22:13;;;;;;;16.27;11.13;;;4.80;99.90;;;;;;5009706;28;20061;-46
2023/11/18 03:24:38;;;;;;;17.35;10.85;;;4.80;99.90;;;;;;5009613;28;20026;-44
2023/11/18 03:27:04;;;;;;;15.90;10.30;;;4.80;99.90;;;;;;5009671;28;20041;-49
2023/11/18 03:29:29;;;;;;;21.60;11.73;;;4.70;99.90;;;;;;5009794;28;20105;-50
2023/11/18 03:31:55;;;;;;;17.42;11.27;;;4.80;99.90;;;;;;5008332;28;20113;-46
2023/11/18 03:34:21;;;;;;;14.95;10.30;;;4.70;99.90;;;;;;5009631;28;20018;-47
2023/11/18 03:36:47;;;;;;;14.75;10.18;;;4.70;99.90;;;;;;5009653;28;20041;-47
2023/11/18 03:39:14;;;;;;;17.73;11.52;;;4.70;99.90;;;;;;5009450;28;20428;-45
2023/11/18 03:41:45;;;;;;;17.00;11.50;;;4.70;99.90;;;;;;5009374;28;20018;-44
2023/11/18 03:44:14;;;;;;;21.17;11.40;;;4.70;99.90;;;;;;5008245;28;20062;-45
2023/11/18 03:46:41;;;;;;;16.80;11.48;;;4.70;99.90;;;;;;5007748;28;20117;-46
2023/11/18 03:49:06;;;;;;;17.90;11.50;;;4.80;99.90;;;;;;5008224;28;20021;-52
2023/11/18 03:51:32;;;;;;;18.33;12.43;;;4.90;99.90;;;;;;5007927;28;20022;-46
2023/11/18 03:53:59;;;;;;;16.92;11.43;;;5.00;99.90;;;;;;5009285;28;20025;-44
2023/11/18 03:56:26;;;;;;;17.27;11.85;;;4.90;99.90;;;;;;5007901;28;20427;-46
2023/11/18 03:58:52;;;;;;;15.48;11.57;;;5.00;99.90;;;;;;5009414;28;20067;-45
2023/11/18 04:01:22;;;;;;;21.77;12.02;;;5.10;99.90;;;;;;5009259;28;20030;-46
2023/11/18 04:03:48;;;;;;;16.27;11.25;;;5.10;99.90;;;;;;5009262;28;20105;-47
2023/11/18 04:06:14;;;;;;;21.05;13.05;;;5.10;99.90;;;;;;5009547;28;20116;-46
2023/11/18 04:08:44;;;;;;;24.05;13.65;;;5.00;99.90;;;;;;5009343;28;20026;-44
2023/11/18 04:11:09;;;;;;;19.90;13.15;;;5.00;99.90;;;;;;5009120;28;20024;-45
2023/11/18 04:13:35;;;;;;;20.05;12.30;;;5.10;99.90;;;;;;5009210;28;20108;-44
2023/11/18 04:16:00;;;;;;;21.38;13.13;;;5.10;99.90;;;;;;5009233;28;20048;-46
2023/11/18 04:18:26;;;;;;;22.05;12.68;;;5.10;99.90;;;;;;5009123;28;20034;-47
2023/11/18 04:20:52;;;;;;;26.02;13.50;;;5.00;99.90;;;;;;5008774;28;20054;-44
2023/11/18 04:23:18;;;;;;;23.80;13.68;;;4.90;99.90;;;;;;5008463;28;20034;-50
2023/11/18 04:25:43;;;;;;;40.97;13.80;;;4.80;99.90;;;;;;5007653;28;20036;-44
2023/11/18 04:28:10;;;;;;;35.28;12.05;;;4.80;99.90;;;;;;5007550;28;20030;-45
2023/11/18 04:30:35;;;;;;;44.40;12.75;;;4.80;99.90;;;;;;5008939;28;20025;-44
2023/11/18 04:33:01;;;;;;;33.22;12.43;;;4.70;99.90;;;;;;5008724;28;20489;-46
2023/11/18 04:35:26;;;;;;;64.97;14.57;;;4.60;99.90;;;;;;5008728;28;20022;-43
2023/11/18 04:37:52;;;;;;;32.08;11.45;;;4.50;99.90;;;;;;5008526;28;20402;-47
2023/11/18 04:40:17;;;;;;;53.55;11.73;;;4.50;99.90;;;;;;5008750;28;20517;-44
2023/11/18 04:42:43;;;;;;;42.33;11.10;;;4.50;99.90;;;;;;5008461;28;20437;-46
2023/11/18 04:45:09;;;;;;;28.92;10.80;;;4.40;99.90;;;;;;5008950;28;20098;-45
2023/11/18 04:47:36;;;;;;;47.78;11.82;;;4.30;99.90;;;;;;5007137;28;20125;-47
2023/11/18 04:50:03;;;;;;;77.35;12.18;;;4.20;99.90;;;;;;5008733;28;20026;-45
2023/11/18 04:52:28;;;;;;;31.35;10.40;;;4.20;99.90;;;;;;5008917;28;20092;-52
2023/11/18 04:54:54;;;;;;;75.80;12.95;;;4.20;99.90;;;;;;5007279;28;20030;-47
2023/11/18 04:57:20;;;;;;;62.13;12.80;;;4.10;99.90;;;;;;5006992;28;20034;-45
2023/11/18 04:59:45;;;;;;;45.42;11.65;;;4.10;99.90;;;;;;5008337;28;20125;-48
2023/11/18 05:02:11;;;;;;;59.35;13.30;;;4.00;99.90;;;;;;5008378;28;20435;-53
2023/11/18 05:04:36;;;;;;;20.55;11.48;;;4.00;99.90;;;;;;5008298;28;20560;-48
2023/11/18 05:07:02;;;;;;;22.00;11.68;;;4.00;99.90;;;;;;5008344;28;20034;-45
2023/11/18 05:09:28;;;;;;;45.88;12.70;;;4.00;99.90;;;;;;5008517;28;20026;-47
2023/11/18 05:11:54;;;;;;;29.13;11.80;;;4.00;99.90;;;;;;5008196;28;20409;-49
2023/11/18 05:14:20;;;;;;;31.00;11.75;;;4.00;99.90;;;;;;5008378;28;20105;-46
2023/11/18 05:16:46;;;;;;;37.42;11.82;;;4.00;99.90;;;;;;5006801;28;20117;-47
2023/11/18 05:19:12;;;;;;;32.67;12.27;;;4.10;99.90;;;;;;5008350;28;20034;-47
2023/11/18 05:21:37;;;;;;;47.25;12.05;;;4.10;99.90;;;;;;5006869;28;20030;-46
2023/11/18 05:24:03;;;;;;;39.28;12.82;;;4.00;99.90;;;;;;5008276;28;20546;-46
2023/11/18 05:26:29;;;;;;;33.60;12.93;;;4.00;99.90;;;;;;5006651;28;20061;-46
2023/11/18 05:28:54;;;;;;;26.10;11.95;;;4.00;99.90;;;;;;5008207;28;20026;-48
2023/11/18 05:31:20;;;;;;;46.70;13.13;;;4.00;99.90;;;;;;5008009;28;20032;-49
2023/11/18 05:33:51;;;;;;;32.38;12.75;;;4.00;99.90;;;;;;5008063;28;20048;-47
2023/11/18 05:36:19;;;;;;;18.73;11.50;;;3.90;99.90;;;;;;5010644;28;20022;-46
2023/11/18 05:38:44;;;;;;;19.35;11.75;;;3.90;99.90;;;;;;5011443;28;20060;-47
2023/11/18 05:41:16;;;;;;;28.58;12.32;;;3.90;99.90;;;;;;5011334;28;20058;-45
2023/11/18 05:43:44;;;;;;;17.65;10.48;;;4.00;99.90;;;;;;5011673;28;20066;-45
2023/11/18 05:46:24;;;;;;;15.15;10.73;;;4.10;99.90;;;;;;5011216;28;20389;-48
2023/11/18 05:48:50;;;;;;;16.20;10.13;;;4.10;99.90;;;;;;5011323;28;20048;-47
2023/11/18 05:51:21;;;;;;;15.93;10.45;;;4.10;99.90;;;;;;5011340;28;20097;-46
2023/11/18 05:53:47;;;;;;;27.55;11.77;;;4.10;99.90;;;;;;5011330;28;20026;-44
2023/11/18 05:56:13;;;;;;;17.65;10.90;;;4.20;99.90;;;;;;5011175;28;20100;-47
2023/11/18 05:58:39;;;;;;;21.58;12.55;;;4.20;99.90;;;;;;5010938;28;20212;-49
2023/11/18 06:01:08;;;;;;;16.75;10.73;;;4.20;99.90;;;;;;5011024;28;20619;-43
2023/11/18 06:03:38;;;;;;;17.30;10.00;;;4.10;99.90;;;;;;5011040;28;20374;-44
2023/11/18 06:06:06;;;;;;;15.05;10.88;;;4.20;99.90;;;;;;5010809;28;20030;-47
2023/11/18 06:08:32;;;;;;;15.30;9.93;;;4.20;99.90;;;;;;5010829;28;20026;-47
2023/11/18 06:10:58;;;;;;;13.05;9.45;;;4.10;99.90;;;;;;5011332;28;20101;-45
2023/11/18 06:13:24;;;;;;;13.85;9.65;;;4.20;99.90;;;;;;5011517;28;20022;-46
2023/11/18 06:15:51;;;;;;;13.57;9.27;;;4.20;99.90;;;;;;5009422;28;20022;-51
2023/11/18 06:18:18;;;;;;;12.23;9.40;;;4.20;99.90;;;;;;5010639;28;20026;-46
2023/11/18 06:20:44;;;;;;;11.25;9.15;;;4.20;99.90;;;;;;5010579;28;20137;-49
2023/11/18 06:23:10;;;;;;;15.23;11.43;;;4.30;99.90;;;;;;5010468;28;20038;-43
2023/11/18 06:25:36;;;;;;;14.00;9.05;;;4.30;99.90;;;;;;5010489;28;20477;-44
2023/11/18 06:28:02;;;;;;;13.25;10.43;;;4.40;99.90;;;;;;5010150;28;20033;-44
2023/11/18 06:30:27;;;;;;;15.77;9.60;;;4.40;99.90;;;;;;5010612;28;20014;-44
2023/11/18 06:32:53;;;;;;;11.30;8.45;;;4.30;99.90;;;;;;5010132;28;20508;-46
2023/11/18 06:35:21;;;;;;;14.15;9.77;;;4.30;99.90;;;;;;5010483;28;20075;-45
2023/11/18 06:37:47;;;;;;;11.75;8.43;;;4.30;99.90;;;;;;5010614;28;20492;-47
2023/11/18 06:40:21;;;;;;;14.20;9.38;;;4.40;99.90;;;;;;5012425;28;20057;-49
2023/11/18 06:42:47;;;;;;;12.55;9.43;;;4.40;99.90;;;;;;5010691;28;20042;-45
2023/11/18 06:45:14;;;;;;;10.80;8.48;;;4.50;99.90;;;;;;5010367;28;20030;-50
2023/11/18 06:47:43;;;;;;;15.18;9.95;;;4.40;99.90;;;;;;5010671;28;20033;-45
2023/11/18 06:50:09;;;;;;;14.73;9.70;;;4.50;99.90;;;;;;5010393;28;20026;-43
2023/11/18 06:52:38;;;;;;;16.33;10.80;;;4.40;99.90;;;;;;5010239;28;20493;-45
2023/11/18 06:55:04;;;;;;;15.98;10.18;;;4.40;99.90;;;;;;5025193;28;20062;-45
2023/11/18 06:57:29;;;;;;;15.38;9.68;;;4.40;99.90;;;;;;5025235;28;20029;-44
2023/11/18 06:59:55;;;;;;;15.68;9.98;;;4.30;99.90;;;;;;5008967;28;20493;-50
2023/11/18 07:02:21;;;;;;;16.33;10.77;;;4.30;99.90;;;;;;5009912;28;20528;-47
2023/11/18 07:04:46;;;;;;;15.10;10.32;;;4.30;99.90;;;;;;5009934;28;20033;-45
2023/11/18 07:07:12;;;;;;;15.70;10.93;;;4.30;99.90;;;;;;5010149;28;20090;-47
2023/11/18 07:09:39;;;;;;;17.30;10.57;;;4.30;99.90;;;;;;5010184;28;20439;-49
2023/11/18 07:12:05;;;;;;;14.38;10.43;;;4.30;99.90;;;;;;5010143;28;20509;-44
2023/11/18 07:14:30;;;;;;;19.30;11.60;;;4.30;99.90;;;;;;5010095;28;20033;-45
2023/11/18 07:16:56;;;;;;;15.02;10.25;;;4.40;99.90;;;;;;5008559;28;20022;-50
2023/11/18 07:19:21;;;;;;;15.45;9.95;;;4.40;99.90;;;;;;5010118;28;20029;-48
2023/11/18 07:21:47;;;;;;;16.08;11.63;;;4.50;99.90;;;;;;5009824;28;20026;-47
2023/11/18 07:24:13;;;;;;;15.63;11.43;;;4.60;99.90;;;;;;5009644;28;20030;-44
2023/11/18 07:26:38;;;;;;;18.23;11.90;;;4.70;99.90;;;;;;5009542;28;20029;-45
2023/11/18 07:29:07;;;;;;;18.52;11.95;;;4.60;99.90;;;;;;5009743;28;20101;-44
2023/11/18 07:31:33;;;;;;;17.95;12.35;;;4.60;99.90;;;;;;5009749;28;20060;-46
2023/11/18 07:33:58;;;;;;;18.48;12.27;;;4.60;99.90;;;;;;5009494;28;20071;-52
2023/11/18 07:36:24;;;;;;;22.02;11.13;;;4.70;99.90;;;;;;5009580;28;20032;-43
2023/11/18 07:38:52;;;;;;;22.10;12.20;;;4.80;99.90;;;;;;5009541;28;20397;-45
2023/11/18 07:41:23;;;;;;;23.25;13.25;;;4.80;99.90;;;;;;5009558;28;20111;-44
2023/11/18 07:43:55;;;;;;;23.80;12.25;;;4.80;99.90;;;;;;5009636;28;20030;-45
2023/11/18 07:46:22;;;;;;;16.67;11.65;;;4.80;99.90;;;;;;5009333;28;20485;-48
2023/11/18 07:48:49;;;;;;;17.08;11.60;;;4.90;99.90;;;;;;5009216;28;20037;-49
2023/11/18 07:51:15;;;;;;;19.58;12.20;;;4.90;99.90;;;;;;5009109;28;20022;-45
2023/11/18 07:53:41;;;;;;;25.08;13.00;;;5.00;99.90;;;;;;5009211;28;20082;-47
2023/11/18 07:56:10;;;;;;;26.42;13.93;;;5.10;99.90;;;;;;5009058;28;20109;-45
2023/11/18 07:58:37;;;;;;;24.80;13.00;;;5.10;99.90;;;;;;5008296;28;20033;-47
2023/11/18 08:01:04;;;;;;;17.67;10.68;;;5.10;99.90;;;;;;5008899;28;20057;-45
2023/11/18 08:03:31;;;;;;;31.17;14.50;;;5.10;99.90;;;;;;5009129;28;20104;-48
2023/11/18 08:05:57;;;;;;;26.83;13.80;;;5.20;99.90;;;;;;5008904;28;20025;-50
2023/11/18 08:08:23;;;;;;;29.85;13.70;;;5.30;99.90;;;;;;5007806;28;20033;-46
2023/11/18 08:10:50;;;;;;;37.15;14.10;;;5.30;99.90;;;;;;5009238;28;20500;-46
2023/11/18 08:13:16;;;;;;;28.92;14.75;;;5.40;99.90;;;;;;5009454;28;20034;-45
2023/11/18 08:15:45;;;;;;;40.42;16.10;;;5.40;99.90;;;;;;5009195;28;20463;-46
2023/11/18 08:18:11;;;;;;;25.35;14.18;;;5.40;99.90;;;;;;5008970;28;20032;-45
2023/11/18 08:20:36;;;;;;;26.30;14.27;;;5.50;99.90;;;;;;5007938;28;20549;-48
2023/11/18 08:23:04;;;;;;;30.55;14.52;;;5.60;99.90;;;;;;5008849;28;20038;-45
2023/11/18 08:25:30;;;;;;;26.55;14.23;;;5.60;99.90;;;;;;5009171;28;20041;-47
2023/11/18 08:27:55;;;;;;;35.28;16.77;;;5.60;99.90;;;;;;5008992;28;20030;-45
2023/11/18 08:30:21;;;;;;;34.85;15.90;;;5.70;99.90;;;;;;5009453;28;20026;-48
2023/11/18 08:32:47;;;;;;;34.60;15.60;;;5.80;99.90;;;;;;5008876;28;20030;-46
2023/11/18 08:35:14;;;;;;;47.20;17.95;;;5.80;99.90;;;;;;5009661;28;20022;-45
2023/11/18 08:37:42;;;;;;;46.85;15.85;;;5.90;99.90;;;;;;5009555;28;20045;-45
2023/11/18 08:40:14;;;;;;;35.30;16.02;;;5.90;99.90;;;;;;5009918;28;20029;-45
2023/11/18 08:42:47;;;;;;;51.33;16.30;;;5.90;99.90;;;;;;5009509;28;20030;-46
2023/11/18 08:45:29;;;;;;;36.63;16.60;;;5.90;99.90;;;;;;5009895;28;20496;-50
2023/11/18 08:47:56;;;;;;;37.70;16.80;;;6.00;99.90;;;;;;5008901;28;20042;-50
2023/11/18 08:50:25;;;;;;;46.90;18.50;;;6.00;99.90;;;;;;5009636;28;20026;-51
2023/11/18 08:52:57;;;;;;;56.47;19.40;;;6.10;99.90;;;;;;5008837;28;20097;-48
2023/11/18 08:55:38;;;;;;;52.42;20.73;;;6.10;99.90;;;;;;5008976;28;20029;-46
2023/11/18 08:58:33;;;;;;;42.83;18.23;;;6.20;99.90;;;;;;5008867;28;20034;-43
2023/11/18 09:01:05;;;;;;;54.85;20.63;;;6.20;99.90;;;;;;5008791;28;20042;-49
2023/11/18 09:03:34;;;;;;;58.55;22.27;;;6.30;99.90;;;;;;5008673;28;20037;-48
2023/11/18 09:06:17;;;;;;;56.72;25.63;;;6.40;99.90;;;;;;5008737;28;20074;-49
2023/11/18 09:08:52;;;;;;;46.85;22.52;;;6.40;99.90;;;;;;5007423;28;20030;-46
2023/11/18 09:11:18;;;;;;;46.38;22.83;;;6.40;99.90;;;;;;5011673;28;20121;-48
2023/11/18 09:13:47;;;;;;;57.03;24.38;;;6.50;99.90;;;;;;4998644;28;20518;-47
2023/11/18 09:16:13;;;;;;;49.92;25.02;;;6.50;99.90;;;;;;5010797;28;20053;-43
2023/11/18 09:18:40;;;;;;;43.22;22.23;;;6.50;99.90;;;;;;5011265;28;20029;-50
2023/11/18 09:21:06;;;;;;;50.40;24.55;;;6.60;99.90;;;;;;5009374;28;20034;-48
2023/11/18 09:23:37;;;;;;;45.10;24.27;;;6.60;99.90;;;;;;5009634;28;20458;-46
2023/11/18 09:26:07;;;;;;;50.63;24.75;;;6.60;99.90;;;;;;5010241;28;20030;-46
2023/11/18 09:28:34;;;;;;;44.10;22.48;;;6.60;99.90;;;;;;5011264;28;20087;-48
2023/11/18 09:31:02;;;;;;;45.00;24.27;;;6.60;99.90;;;;;;5011150;28;20014;-44
2023/11/18 09:33:32;;;;;;;45.75;23.30;;;6.60;99.90;;;;;;5011304;28;20342;-44
2023/11/18 09:36:02;;;;;;;39.03;22.90;;;6.60;99.90;;;;;;5010026;28;20026;-46
2023/11/18 09:38:35;;;;;;;41.72;23.17;;;6.60;99.90;;;;;;5011416;28;20030;-43
2023/11/18 09:41:07;;;;;;;40.30;20.95;;;6.60;99.90;;;;;;5011202;28;20404;-48
2023/11/18 09:43:39;;;;;;;38.95;20.90;;;6.70;99.90;;;;;;5010161;28;20036;-45
2023/11/18 09:46:12;;;;;;;38.92;20.73;;;6.70;99.90;;;;;;5011267;28;20030;-44
2023/11/18 09:49:14;;;;;;;35.90;19.85;;;6.70;99.90;;;;;;5011414;28;20485;-44
2023/11/18 09:51:41;;;;;;;35.03;19.90;;;6.70;99.90;;;;;;5019080;28;20042;-46
2023/11/18 09:54:21;;;;;;;34.10;18.42;;;6.80;99.90;;;;;;5011345;28;20207;-45
2023/11/18 09:57:08;;;;;;;32.25;19.80;;;6.80;99.90;;;;;;5010389;28;20026;-46
2023/11/18 09:59:58;;;;;;;33.45;21.05;;;6.80;99.90;;;;;;5009832;28;20018;-50
2023/11/18 10:02:25;;;;;;;33.25;18.67;;;6.80;99.90;;;;;;5009503;28;20104;-49
2023/11/18 10:04:57;;;;;;;32.22;17.08;;;6.90;99.90;;;;;;5011014;28;20022;-47
2023/11/18 10:07:27;;;;;;;30.92;19.25;;;6.90;99.90;;;;;;5010894;28;20041;-44
2023/11/18 10:09:57;;;;;;;27.70;17.75;;;7.00;99.90;;;;;;5009547;28;20576;-45
2023/11/18 10:12:23;;;;;;;27.48;17.42;;;7.00;99.90;;;;;;5010499;28;20029;-45
2023/11/18 10:14:52;;;;;;;27.02;17.42;;;7.00;99.90;;;;;;5009963;28;20052;-42
2023/11/18 10:17:18;;;;;;;28.10;17.52;;;7.10;99.90;;;;;;5009603;28;20393;-44
2023/11/18 10:19:57;;;;;;;28.75;17.98;;;7.10;99.90;;;;;;5009116;28;20401;-45
2023/11/18 10:22:29;;;;;;;34.72;19.65;;;7.10;99.90;;;;;;5010085;28;20037;-46
2023/11/18 10:25:00;;;;;;;34.97;22.13;;;7.10;99.90;;;;;;5010410;28;20049;-47
2023/11/18 10:27:28;;;;;;;37.13;21.92;;;7.20;99.90;;;;;;5008233;28;20057;-44
2023/11/18 10:29:57;;;;;;;33.90;21.33;;;7.20;99.90;;;;;;5008862;28;20052;-50
2023/11/18 10:32:27;;;;;;;33.50;22.13;;;7.20;99.90;;;;;;5010482;28;20491;-47
2023/11/18 10:34:57;;;;;;;32.63;20.20;;;7.20;99.90;;;;;;5009729;28;20109;-43
2023/11/18 10:37:23;;;;;;;37.85;20.85;;;7.30;99.90;;;;;;5011082;28;20038;-47
2023/11/18 10:39:51;;;;;;;31.40;20.52;;;7.30;99.90;;;;;;5009637;28;20153;-44
2023/11/18 10:42:18;;;;;;;33.83;20.00;;;7.30;99.90;;;;;;5009475;28;20055;-47
2023/11/18 10:45:03;;;;;;;29.38;19.88;;;7.50;99.90;;;;;;5010854;28;20022;-50
2023/11/18 10:47:32;;;;;;;34.97;20.67;;;7.50;99.90;;;;;;5009932;28;20117;-45
2023/11/18 10:49:58;;;;;;;30.30;20.52;;;7.50;99.90;;;;;;5025237;28;20030;-50
2023/11/18 10:52:26;;;;;;;36.22;20.48;;;7.60;99.90;;;;;;5010389;28;20025;-47
2023/11/18 10:54:55;;;;;;;28.17;19.05;;;7.60;99.90;;;;;;5007809;28;20125;-45
2023/11/18 10:57:22;;;;;;;30.48;19.90;;;7.70;99.90;;;;;;5008806;28;20509;-46
2023/11/18 11:00:03;;;;;;;27.85;19.83;;;7.70;99.90;;;;;;5008242;28;20033;-47
2023/11/18 11:02:38;;;;;;;29.27;18.35;;;7.70;99.90;;;;;;5009693;28;20026;-46
2023/11/18 11:05:03;;;;;;;28.57;18.77;;;7.80;99.90;;;;;;5010248;28;20030;-48
2023/11/18 11:07:31;;;;;;;25.75;16.52;;;7.90;99.90;;;;;;5009973;28;20288;-47
2023/11/18 11:09:56;;;;;;;25.35;15.70;;;7.90;99.90;;;;;;5010258;28;20147;-49
2023/11/18 11:12:25;;;;;;;23.20;13.68;;;7.80;99.90;;;;;;5010021;28;20061;-51
2023/11/18 11:15:21;;;;;;;17.80;13.27;;;7.90;99.90;;;;;;5008554;28;20030;-48
2023/11/18 11:17:52;;;;;;;;;;;7.80;99.90;;;;;;5010594;28;20030;-47
2023/11/18 11:20:29;;;;;;;21.67;14.52;;;7.90;99.90;;;;;;5010039;28;19905;-46
2023/11/18 11:23:19;;;;;;;23.17;15.38;;;7.90;99.90;;;;;;5009835;28;20057;-49
2023/11/18 11:26:05;;;;;;;30.08;18.10;;;7.90;99.90;;;;;;5009841;28;20025;-47
2023/11/18 11:28:57;;;;;;;41.83;22.40;;;7.90;99.90;;;;;;5025342;28;20037;-51
2023/11/18 11:31:44;;;;;;;18.52;15.10;;;8.00;99.90;;;;;;4983266;28;20496;-48
2023/11/18 11:34:14;;;;;;;30.88;14.88;;;8.00;99.90;;;;;;4989532;28;20397;-49
2023/11/18 11:36:48;;;;;;;23.17;15.27;;;8.00;99.90;;;;;;4989482;28;20023;-49
2023/11/18 11:39:15;;;;;;;21.60;15.20;;;7.90;99.90;;;;;;4990506;28;20033;-49
2023/11/18 11:41:45;;;;;;;22.05;14.15;;;7.90;99.90;;;;;;5008167;28;20021;-48
2023/11/18 11:44:13;;;;;;;18.92;14.63;;;7.90;99.90;;;;;;5008761;28;20022;-48
2023/11/18 11:46:41;;;;;;;19.90;13.18;;;7.90;99.90;;;;;;5009390;28;20090;-48
2023/11/18 11:49:17;;;;;;;20.40;13.57;;;7.90;99.90;;;;;;5009239;28;20086;-48
2023/11/18 11:52:06;;;;;;;18.40;12.10;;;7.80;99.90;;;;;;5008274;28;20108;-48
2023/11/18 11:54:40;;;;;;;21.08;13.55;;;8.10;99.90;;;;;;5009576;28;20049;-52
2023/11/18 11:57:05;;;;;;;17.63;12.98;;;7.80;99.90;;;;;;5009444;28;20544;-47
2023/11/18 11:59:53;;;;;;;16.90;12.13;;;7.80;99.90;;;;;;5009344;28;20113;-49
2023/11/18 12:02:24;;;;;;;16.00;11.82;;;7.80;99.90;;;;;;5008370;28;20028;-50
2023/11/18 12:04:58;;;;;;;17.63;11.57;;;7.80;99.90;;;;;;5009140;28;20034;-53
2023/11/18 12:07:27;;;;;;;19.77;12.15;;;7.90;99.90;;;;;;5008811;28;20504;-47
2023/11/18 12:09:57;;;;;;;16.42;10.60;;;7.90;99.90;;;;;;5008580;28;20030;-50
2023/11/18 12:12:28;;;;;;;18.20;11.60;;;7.90;99.90;;;;;;5006734;28;20018;-46
2023/11/18 12:15:11;;;;;;;16.88;11.18;;;8.00;99.90;;;;;;5009123;28;20093;-49
2023/11/18 12:17:58;;;;;;;15.63;10.63;;;8.00;99.90;;;;;;5007491;28;20440;-49
2023/11/18 12:20:42;;;;;;;14.80;10.98;;;8.00;99.90;;;;;;5008107;28;20049;-50
2023/11/18 12:23:14;;;;;;;18.48;10.80;;;8.00;99.90;;;;;;5002069;28;20045;-47
2023/11/18 12:25:45;;;;;;;17.17;9.95;;;8.00;99.90;;;;;;4988218;28;20033;-51
2023/11/18 12:28:14;;;;;;;13.65;9.05;;;8.00;99.90;;;;;;4989052;28;20482;-51
2023/11/18 12:30:51;;;;;;;15.75;9.07;;;8.00;99.90;;;;;;4999403;28;20113;-48
2023/11/18 12:33:18;;;;;;;17.00;9.35;;;8.00;99.90;;;;;;5007664;28;20033;-50
2023/11/18 12:35:50;;;;;;;41.10;25.98;;;8.00;99.90;;;;;;5009048;28;20479;-47
2023/11/18 12:39:00;;;;;;;23.05;14.32;;;8.00;99.90;;;;;;5008528;28;20038;-52
2023/11/18 12:41:39;;;;;;;13.50;9.55;;;8.10;99.90;;;;;;5008571;28;20030;-54
2023/11/18 12:44:20;;;;;;;17.10;10.25;;;8.00;99.90;;;;;;5009676;28;20026;-45
2023/11/18 12:49:16;;;;;;;12.90;9.00;;;8.10;99.90;;;;;;5019645;28;20049;-51